sensor_id;sensor_type;location;lat;lon;timestamp;P1;durP1;ratioP1;P2;durP2;ratioP2
74415;SDS011;62850;42.428;25.618;2023-02-28T00:00:48;12.70;;;7.22;;
74415;SDS011;62850;42.428;25.618;2023-02-28T00:03:14;15.55;;;8.23;;
74415;SDS011;62850;42.428;25.618;2023-02-28T00:05:39;16.63;;;8.02;;
74415;SDS011;62850;42.428;25.618;2023-02-28T00:08:06;16.38;;;8.23;;
74415;SDS011;62850;42.428;25.618;2023-02-28T00:10:32;19.35;;;8.95;;
74415;SDS011;62850;42.428;25.618;2023-02-28T00:13:02;18.65;;;8.38;;
74415;SDS011;62850;42.428;25.618;2023-02-28T00:15:30;17.25;;;8.10;;
74415;SDS011;62850;42.428;25.618;2023-02-28T00:17:56;16.55;;;8.70;;
74415;SDS011;62850;42.428;25.618;2023-02-28T00:20:22;19.52;;;8.73;;
74415;SDS011;62850;42.428;25.618;2023-02-28T00:22:48;16.60;;;8.43;;
74415;SDS011;62850;42.428;25.618;2023-02-28T00:25:18;19.45;;;9.35;;
74415;SDS011;62850;42.428;25.618;2023-02-28T00:27:47;18.70;;;8.68;;
74415;SDS011;62850;42.428;25.618;2023-02-28T00:30:20;18.30;;;8.75;;
74415;SDS011;62850;42.428;25.618;2023-02-28T00:32:47;18.42;;;9.98;;
74415;SDS011;62850;42.428;25.618;2023-02-28T00:35:13;21.35;;;9.48;;
74415;SDS011;62850;42.428;25.618;2023-02-28T00:37:39;16.88;;;9.50;;
74415;SDS011;62850;42.428;25.618;2023-02-28T00:40:05;20.33;;;9.85;;
74415;SDS011;62850;42.428;25.618;2023-02-28T00:42:32;17.58;;;9.25;;
74415;SDS011;62850;42.428;25.618;2023-02-28T00:45:00;18.80;;;9.13;;
74415;SDS011;62850;42.428;25.618;2023-02-28T00:47:26;19.02;;;9.63;;
74415;SDS011;62850;42.428;25.618;2023-02-28T00:49:52;17.40;;;8.88;;
74415;SDS011;62850;42.428;25.618;2023-02-28T00:52:17;17.92;;;10.02;;
74415;SDS011;62850;42.428;25.618;2023-02-28T00:54:43;18.88;;;9.27;;
74415;SDS011;62850;42.428;25.618;2023-02-28T00:57:08;16.30;;;9.20;;
74415;SDS011;62850;42.428;25.618;2023-02-28T00:59:34;20.95;;;9.27;;
74415;SDS011;62850;42.428;25.618;2023-02-28T01:02:00;19.73;;;10.15;;
74415;SDS011;62850;42.428;25.618;2023-02-28T01:04:25;20.60;;;9.18;;
74415;SDS011;62850;42.428;25.618;2023-02-28T01:06:51;17.85;;;9.02;;
74415;SDS011;62850;42.428;25.618;2023-02-28T01:09:16;21.08;;;10.98;;
74415;SDS011;62850;42.428;25.618;2023-02-28T01:11:42;21.40;;;10.63;;
74415;SDS011;62850;42.428;25.618;2023-02-28T01:14:11;23.42;;;10.98;;
74415;SDS011;62850;42.428;25.618;2023-02-28T01:16:38;21.75;;;10.45;;
74415;SDS011;62850;42.428;25.618;2023-02-28T01:19:04;20.50;;;10.48;;
74415;SDS011;62850;42.428;25.618;2023-02-28T01:21:30;20.52;;;10.95;;
74415;SDS011;62850;42.428;25.618;2023-02-28T01:23:56;21.40;;;10.10;;
74415;SDS011;62850;42.428;25.618;2023-02-28T01:26:22;17.90;;;9.93;;
74415;SDS011;62850;42.428;25.618;2023-02-28T01:28:49;21.77;;;9.95;;
74415;SDS011;62850;42.428;25.618;2023-02-28T01:31:16;25.13;;;9.65;;
74415;SDS011;62850;42.428;25.618;2023-02-28T01:33:43;19.40;;;9.80;;
74415;SDS011;62850;42.428;25.618;2023-02-28T01:36:14;20.83;;;9.90;;
74415;SDS011;62850;42.428;25.618;2023-02-28T01:38:41;21.00;;;9.70;;
74415;SDS011;62850;42.428;25.618;2023-02-28T01:41:07;18.67;;;9.40;;
74415;SDS011;62850;42.428;25.618;2023-02-28T01:46:07;26.70;;;10.15;;
74415;SDS011;62850;42.428;25.618;2023-02-28T01:48:35;17.73;;;8.93;;
74415;SDS011;62850;42.428;25.618;2023-02-28T01:51:11;20.50;;;9.15;;
74415;SDS011;62850;42.428;25.618;2023-02-28T01:53:42;20.08;;;9.38;;
74415;SDS011;62850;42.428;25.618;2023-02-28T01:56:13;18.08;;;8.88;;
74415;SDS011;62850;42.428;25.618;2023-02-28T01:58:46;18.80;;;8.82;;
74415;SDS011;62850;42.428;25.618;2023-02-28T02:01:13;18.77;;;9.05;;
74415;SDS011;62850;42.428;25.618;2023-02-28T02:03:47;21.52;;;9.82;;
74415;SDS011;62850;42.428;25.618;2023-02-28T02:06:21;17.80;;;9.55;;
74415;SDS011;62850;42.428;25.618;2023-02-28T02:08:48;20.05;;;9.25;;
74415;SDS011;62850;42.428;25.618;2023-02-28T02:11:13;18.55;;;8.77;;
74415;SDS011;62850;42.428;25.618;2023-02-28T02:25:26;23.75;;;8.82;;
74415;SDS011;62850;42.428;25.618;2023-02-28T02:39:39;16.35;;;7.55;;
74415;SDS011;62850;42.428;25.618;2023-02-28T02:42:13;15.68;;;7.45;;
74415;SDS011;62850;42.428;25.618;2023-02-28T02:44:45;15.75;;;7.65;;
74415;SDS011;62850;42.428;25.618;2023-02-28T02:47:16;19.45;;;8.18;;
74415;SDS011;62850;42.428;25.618;2023-02-28T02:49:45;20.00;;;8.35;;
74415;SDS011;62850;42.428;25.618;2023-02-28T02:52:16;19.08;;;8.15;;
74415;SDS011;62850;42.428;25.618;2023-02-28T02:54:46;19.42;;;7.90;;
74415;SDS011;62850;42.428;25.618;2023-02-28T02:57:21;17.45;;;7.95;;
74415;SDS011;62850;42.428;25.618;2023-02-28T02:59:50;19.02;;;7.30;;
74415;SDS011;62850;42.428;25.618;2023-02-28T03:02:18;16.60;;;7.55;;
74415;SDS011;62850;42.428;25.618;2023-02-28T03:04:48;15.88;;;7.20;;
74415;SDS011;62850;42.428;25.618;2023-02-28T03:07:17;16.63;;;6.70;;
74415;SDS011;62850;42.428;25.618;2023-02-28T03:09:53;16.52;;;7.50;;
74415;SDS011;62850;42.428;25.618;2023-02-28T03:12:19;15.68;;;7.03;;
74415;SDS011;62850;42.428;25.618;2023-02-28T03:20:09;14.18;;;7.30;;
74415;SDS011;62850;42.428;25.618;2023-02-28T03:25:54;12.88;;;6.32;;
74415;SDS011;62850;42.428;25.618;2023-02-28T03:30:53;15.95;;;7.15;;
74415;SDS011;62850;42.428;25.618;2023-02-28T03:33:34;14.80;;;7.15;;
74415;SDS011;62850;42.428;25.618;2023-02-28T03:36:08;15.85;;;7.07;;
74415;SDS011;62850;42.428;25.618;2023-02-28T03:41:13;15.13;;;7.18;;
74415;SDS011;62850;42.428;25.618;2023-02-28T03:43:43;16.67;;;6.82;;
74415;SDS011;62850;42.428;25.618;2023-02-28T03:46:14;15.02;;;7.28;;
74415;SDS011;62850;42.428;25.618;2023-02-28T03:48:46;16.27;;;7.78;;
74415;SDS011;62850;42.428;25.618;2023-02-28T03:51:17;15.73;;;7.97;;
74415;SDS011;62850;42.428;25.618;2023-02-28T03:54:09;20.45;;;7.80;;
74415;SDS011;62850;42.428;25.618;2023-02-28T03:56:37;17.73;;;7.70;;
74415;SDS011;62850;42.428;25.618;2023-02-28T03:59:16;15.13;;;7.22;;
74415;SDS011;62850;42.428;25.618;2023-02-28T04:01:47;16.98;;;7.18;;
74415;SDS011;62850;42.428;25.618;2023-02-28T04:04:14;17.70;;;8.07;;
74415;SDS011;62850;42.428;25.618;2023-02-28T04:06:42;15.85;;;7.05;;
74415;SDS011;62850;42.428;25.618;2023-02-28T04:09:09;15.50;;;7.25;;
74415;SDS011;62850;42.428;25.618;2023-02-28T04:11:46;19.35;;;8.13;;
74415;SDS011;62850;42.428;25.618;2023-02-28T04:14:20;18.58;;;7.90;;
74415;SDS011;62850;42.428;25.618;2023-02-28T04:16:47;17.40;;;8.30;;
74415;SDS011;62850;42.428;25.618;2023-02-28T04:19:12;16.48;;;7.72;;
74415;SDS011;62850;42.428;25.618;2023-02-28T04:21:48;16.67;;;7.28;;
74415;SDS011;62850;42.428;25.618;2023-02-28T04:24:17;21.65;;;7.97;;
74415;SDS011;62850;42.428;25.618;2023-02-28T04:26:45;16.20;;;7.50;;
74415;SDS011;62850;42.428;25.618;2023-02-28T04:29:13;19.25;;;7.63;;
74415;SDS011;62850;42.428;25.618;2023-02-28T04:31:42;18.58;;;7.60;;
74415;SDS011;62850;42.428;25.618;2023-02-28T04:34:08;18.92;;;7.60;;
74415;SDS011;62850;42.428;25.618;2023-02-28T04:36:33;17.60;;;7.70;;
74415;SDS011;62850;42.428;25.618;2023-02-28T04:38:59;18.17;;;8.05;;
74415;SDS011;62850;42.428;25.618;2023-02-28T04:41:24;17.63;;;7.75;;
74415;SDS011;62850;42.428;25.618;2023-02-28T04:43:51;15.45;;;7.25;;
74415;SDS011;62850;42.428;25.618;2023-02-28T04:46:17;16.52;;;7.07;;
74415;SDS011;62850;42.428;25.618;2023-02-28T04:48:43;17.90;;;7.57;;
74415;SDS011;62850;42.428;25.618;2023-02-28T04:51:10;16.08;;;7.53;;
74415;SDS011;62850;42.428;25.618;2023-02-28T04:53:38;15.00;;;7.05;;
74415;SDS011;62850;42.428;25.618;2023-02-28T04:56:05;19.27;;;7.80;;
74415;SDS011;62850;42.428;25.618;2023-02-28T04:58:31;18.30;;;7.63;;
74415;SDS011;62850;42.428;25.618;2023-02-28T05:01:02;20.92;;;7.85;;
74415;SDS011;62850;42.428;25.618;2023-02-28T05:03:29;21.70;;;8.07;;
74415;SDS011;62850;42.428;25.618;2023-02-28T05:05:54;19.17;;;7.65;;
74415;SDS011;62850;42.428;25.618;2023-02-28T05:08:19;19.38;;;8.30;;
74415;SDS011;62850;42.428;25.618;2023-02-28T05:10:45;19.40;;;8.32;;
74415;SDS011;62850;42.428;25.618;2023-02-28T05:13:13;18.90;;;7.93;;
74415;SDS011;62850;42.428;25.618;2023-02-28T05:15:39;19.77;;;9.43;;
74415;SDS011;62850;42.428;25.618;2023-02-28T05:18:05;15.82;;;7.30;;
74415;SDS011;62850;42.428;25.618;2023-02-28T05:20:30;19.60;;;8.35;;
74415;SDS011;62850;42.428;25.618;2023-02-28T05:22:56;15.30;;;8.02;;
74415;SDS011;62850;42.428;25.618;2023-02-28T05:25:24;20.60;;;8.13;;
74415;SDS011;62850;42.428;25.618;2023-02-28T05:27:49;21.48;;;8.13;;
74415;SDS011;62850;42.428;25.618;2023-02-28T05:30:15;19.00;;;8.30;;
74415;SDS011;62850;42.428;25.618;2023-02-28T05:32:41;23.15;;;8.63;;
74415;SDS011;62850;42.428;25.618;2023-02-28T05:35:10;21.08;;;8.40;;
74415;SDS011;62850;42.428;25.618;2023-02-28T05:37:37;20.27;;;8.18;;
74415;SDS011;62850;42.428;25.618;2023-02-28T05:40:03;25.67;;;8.55;;
74415;SDS011;62850;42.428;25.618;2023-02-28T05:42:35;18.80;;;8.32;;
74415;SDS011;62850;42.428;25.618;2023-02-28T05:45:01;24.30;;;9.77;;
74415;SDS011;62850;42.428;25.618;2023-02-28T05:47:26;19.08;;;8.20;;
74415;SDS011;62850;42.428;25.618;2023-02-28T05:49:52;20.33;;;7.93;;
74415;SDS011;62850;42.428;25.618;2023-02-28T05:52:17;18.67;;;8.45;;
74415;SDS011;62850;42.428;25.618;2023-02-28T05:54:43;25.65;;;9.23;;
74415;SDS011;62850;42.428;25.618;2023-02-28T05:57:08;18.50;;;8.07;;
74415;SDS011;62850;42.428;25.618;2023-02-28T05:59:34;18.50;;;8.50;;
74415;SDS011;62850;42.428;25.618;2023-02-28T06:01:59;19.48;;;9.27;;
74415;SDS011;62850;42.428;25.618;2023-02-28T06:04:25;20.30;;;8.70;;
74415;SDS011;62850;42.428;25.618;2023-02-28T06:06:50;22.80;;;8.68;;
74415;SDS011;62850;42.428;25.618;2023-02-28T06:09:16;17.55;;;8.27;;
74415;SDS011;62850;42.428;25.618;2023-02-28T06:11:43;19.17;;;9.07;;
74415;SDS011;62850;42.428;25.618;2023-02-28T06:14:18;18.48;;;8.60;;
74415;SDS011;62850;42.428;25.618;2023-02-28T06:16:45;21.17;;;9.82;;
74415;SDS011;62850;42.428;25.618;2023-02-28T06:19:10;19.13;;;8.82;;
74415;SDS011;62850;42.428;25.618;2023-02-28T06:21:36;22.60;;;8.70;;
74415;SDS011;62850;42.428;25.618;2023-02-28T06:24:02;21.20;;;8.60;;
74415;SDS011;62850;42.428;25.618;2023-02-28T06:26:28;16.15;;;7.60;;
74415;SDS011;62850;42.428;25.618;2023-02-28T06:28:54;18.52;;;8.45;;
74415;SDS011;62850;42.428;25.618;2023-02-28T06:31:19;18.90;;;7.85;;
74415;SDS011;62850;42.428;25.618;2023-02-28T06:33:45;19.30;;;8.13;;
74415;SDS011;62850;42.428;25.618;2023-02-28T06:36:12;18.58;;;8.05;;
74415;SDS011;62850;42.428;25.618;2023-02-28T06:38:38;15.85;;;7.93;;
74415;SDS011;62850;42.428;25.618;2023-02-28T06:41:05;21.05;;;9.15;;
74415;SDS011;62850;42.428;25.618;2023-02-28T06:43:32;17.05;;;7.38;;
74415;SDS011;62850;42.428;25.618;2023-02-28T06:46:00;19.83;;;7.97;;
74415;SDS011;62850;42.428;25.618;2023-02-28T06:48:29;20.10;;;8.18;;
74415;SDS011;62850;42.428;25.618;2023-02-28T06:51:02;15.80;;;8.15;;
74415;SDS011;62850;42.428;25.618;2023-02-28T06:53:32;14.73;;;7.28;;
74415;SDS011;62850;42.428;25.618;2023-02-28T06:55:58;14.35;;;6.60;;
74415;SDS011;62850;42.428;25.618;2023-02-28T06:58:24;15.18;;;7.05;;
74415;SDS011;62850;42.428;25.618;2023-02-28T07:00:50;17.08;;;7.05;;
74415;SDS011;62850;42.428;25.618;2023-02-28T07:03:16;19.38;;;7.25;;
74415;SDS011;62850;42.428;25.618;2023-02-28T07:05:43;11.77;;;6.20;;
74415;SDS011;62850;42.428;25.618;2023-02-28T07:08:09;17.65;;;6.90;;
74415;SDS011;62850;42.428;25.618;2023-02-28T07:10:36;11.90;;;6.10;;
74415;SDS011;62850;42.428;25.618;2023-02-28T07:13:03;16.33;;;6.80;;
74415;SDS011;62850;42.428;25.618;2023-02-28T07:15:30;17.33;;;6.80;;
74415;SDS011;62850;42.428;25.618;2023-02-28T07:17:55;14.73;;;6.95;;
74415;SDS011;62850;42.428;25.618;2023-02-28T07:20:21;17.88;;;7.40;;
74415;SDS011;62850;42.428;25.618;2023-02-28T07:22:48;14.70;;;7.18;;
74415;SDS011;62850;42.428;25.618;2023-02-28T07:25:20;15.23;;;7.13;;
74415;SDS011;62850;42.428;25.618;2023-02-28T07:27:46;14.18;;;6.90;;
74415;SDS011;62850;42.428;25.618;2023-02-28T07:30:12;14.30;;;6.80;;
74415;SDS011;62850;42.428;25.618;2023-02-28T07:32:37;16.90;;;7.55;;
74415;SDS011;62850;42.428;25.618;2023-02-28T07:35:03;15.27;;;7.10;;
74415;SDS011;62850;42.428;25.618;2023-02-28T07:37:29;15.82;;;6.85;;
74415;SDS011;62850;42.428;25.618;2023-02-28T07:39:56;14.38;;;7.03;;
74415;SDS011;62850;42.428;25.618;2023-02-28T07:42:22;14.90;;;7.18;;
74415;SDS011;62850;42.428;25.618;2023-02-28T07:44:48;13.65;;;7.07;;
74415;SDS011;62850;42.428;25.618;2023-02-28T07:47:13;16.52;;;7.53;;
74415;SDS011;62850;42.428;25.618;2023-02-28T07:49:39;15.25;;;7.22;;
74415;SDS011;62850;42.428;25.618;2023-02-28T07:52:05;15.38;;;7.57;;
74415;SDS011;62850;42.428;25.618;2023-02-28T07:54:31;16.40;;;7.60;;
74415;SDS011;62850;42.428;25.618;2023-02-28T07:56:57;16.38;;;7.57;;
74415;SDS011;62850;42.428;25.618;2023-02-28T07:59:22;15.02;;;7.30;;
74415;SDS011;62850;42.428;25.618;2023-02-28T08:01:48;23.13;;;8.23;;
74415;SDS011;62850;42.428;25.618;2023-02-28T08:04:15;19.88;;;8.27;;
74415;SDS011;62850;42.428;25.618;2023-02-28T08:06:42;20.27;;;7.78;;
74415;SDS011;62850;42.428;25.618;2023-02-28T08:09:07;16.17;;;8.00;;
74415;SDS011;62850;42.428;25.618;2023-02-28T08:11:33;21.13;;;8.30;;
74415;SDS011;62850;42.428;25.618;2023-02-28T08:13:58;15.75;;;7.90;;
74415;SDS011;62850;42.428;25.618;2023-02-28T08:16:24;15.95;;;7.65;;
74415;SDS011;62850;42.428;25.618;2023-02-28T08:18:50;16.45;;;7.75;;
74415;SDS011;62850;42.428;25.618;2023-02-28T08:21:16;16.30;;;8.23;;
74415;SDS011;62850;42.428;25.618;2023-02-28T08:23:43;14.95;;;7.70;;
74415;SDS011;62850;42.428;25.618;2023-02-28T08:26:08;18.80;;;8.27;;
74415;SDS011;62850;42.428;25.618;2023-02-28T08:28:34;18.25;;;8.65;;
74415;SDS011;62850;42.428;25.618;2023-02-28T08:31:00;21.40;;;8.23;;
74415;SDS011;62850;42.428;25.618;2023-02-28T08:33:26;18.42;;;9.18;;
74415;SDS011;62850;42.428;25.618;2023-02-28T08:35:55;16.08;;;8.13;;
74415;SDS011;62850;42.428;25.618;2023-02-28T08:38:22;18.90;;;8.57;;
74415;SDS011;62850;42.428;25.618;2023-02-28T08:40:48;17.77;;;7.88;;
74415;SDS011;62850;42.428;25.618;2023-02-28T08:43:14;20.73;;;9.30;;
74415;SDS011;62850;42.428;25.618;2023-02-28T08:45:39;17.70;;;8.68;;
74415;SDS011;62850;42.428;25.618;2023-02-28T08:48:05;21.63;;;8.43;;
74415;SDS011;62850;42.428;25.618;2023-02-28T08:50:30;20.38;;;8.15;;
74415;SDS011;62850;42.428;25.618;2023-02-28T08:52:56;17.20;;;7.82;;
74415;SDS011;62850;42.428;25.618;2023-02-28T08:55:21;16.77;;;7.40;;
74415;SDS011;62850;42.428;25.618;2023-02-28T08:57:47;17.17;;;7.90;;
74415;SDS011;62850;42.428;25.618;2023-02-28T09:00:13;22.00;;;8.30;;
74415;SDS011;62850;42.428;25.618;2023-02-28T09:02:39;15.35;;;7.75;;
74415;SDS011;62850;42.428;25.618;2023-02-28T09:05:05;14.90;;;7.57;;
74415;SDS011;62850;42.428;25.618;2023-02-28T09:07:31;16.15;;;7.20;;
74415;SDS011;62850;42.428;25.618;2023-02-28T09:09:56;17.48;;;7.38;;
74415;SDS011;62850;42.428;25.618;2023-02-28T09:12:26;14.73;;;7.55;;
74415;SDS011;62850;42.428;25.618;2023-02-28T09:14:56;16.73;;;7.35;;
74415;SDS011;62850;42.428;25.618;2023-02-28T09:17:22;13.73;;;7.00;;
74415;SDS011;62850;42.428;25.618;2023-02-28T09:19:48;15.43;;;7.38;;
74415;SDS011;62850;42.428;25.618;2023-02-28T09:22:14;15.88;;;7.22;;
74415;SDS011;62850;42.428;25.618;2023-02-28T09:24:40;16.77;;;7.57;;
74415;SDS011;62850;42.428;25.618;2023-02-28T09:27:05;14.85;;;7.25;;
74415;SDS011;62850;42.428;25.618;2023-02-28T09:29:31;14.02;;;7.75;;
74415;SDS011;62850;42.428;25.618;2023-02-28T09:31:57;16.10;;;7.75;;
74415;SDS011;62850;42.428;25.618;2023-02-28T09:34:24;16.98;;;7.32;;
74415;SDS011;62850;42.428;25.618;2023-02-28T09:36:50;16.33;;;7.43;;
74415;SDS011;62850;42.428;25.618;2023-02-28T09:39:19;15.52;;;7.47;;
74415;SDS011;62850;42.428;25.618;2023-02-28T09:41:47;16.98;;;8.82;;
74415;SDS011;62850;42.428;25.618;2023-02-28T09:44:17;16.15;;;7.93;;
74415;SDS011;62850;42.428;25.618;2023-02-28T09:46:55;16.60;;;8.30;;
74415;SDS011;62850;42.428;25.618;2023-02-28T09:49:28;17.55;;;8.43;;
74415;SDS011;62850;42.428;25.618;2023-02-28T09:52:04;14.80;;;6.90;;
74415;SDS011;62850;42.428;25.618;2023-02-28T09:54:34;16.58;;;7.60;;
74415;SDS011;62850;42.428;25.618;2023-02-28T10:05:39;15.55;;;6.82;;
74415;SDS011;62850;42.428;25.618;2023-02-28T10:10:39;18.50;;;7.10;;
74415;SDS011;62850;42.428;25.618;2023-02-28T10:13:19;14.65;;;6.57;;
74415;SDS011;62850;42.428;25.618;2023-02-28T10:15:50;12.27;;;6.57;;
74415;SDS011;62850;42.428;25.618;2023-02-28T10:18:21;13.68;;;6.40;;
74415;SDS011;62850;42.428;25.618;2023-02-28T10:20:55;11.93;;;5.95;;
74415;SDS011;62850;42.428;25.618;2023-02-28T10:23:34;12.30;;;6.68;;
74415;SDS011;62850;42.428;25.618;2023-02-28T10:26:11;15.40;;;6.43;;
74415;SDS011;62850;42.428;25.618;2023-02-28T10:28:38;15.10;;;7.38;;
74415;SDS011;62850;42.428;25.618;2023-02-28T10:31:04;13.90;;;6.55;;
74415;SDS011;62850;42.428;25.618;2023-02-28T10:35:57;15.02;;;6.78;;
74415;SDS011;62850;42.428;25.618;2023-02-28T10:38:27;10.75;;;6.20;;
74415;SDS011;62850;42.428;25.618;2023-02-28T10:44:11;15.38;;;6.72;;
74415;SDS011;62850;42.428;25.618;2023-02-28T10:46:45;15.75;;;7.10;;
74415;SDS011;62850;42.428;25.618;2023-02-28T10:49:20;18.42;;;7.43;;
74415;SDS011;62850;42.428;25.618;2023-02-28T10:51:49;13.88;;;6.20;;
74415;SDS011;62850;42.428;25.618;2023-02-28T10:54:24;16.30;;;7.10;;
74415;SDS011;62850;42.428;25.618;2023-02-28T10:57:20;15.88;;;7.30;;
74415;SDS011;62850;42.428;25.618;2023-02-28T10:59:53;12.88;;;6.75;;
74415;SDS011;62850;42.428;25.618;2023-02-28T11:02:38;14.48;;;6.90;;
74415;SDS011;62850;42.428;25.618;2023-02-28T11:05:25;14.77;;;5.97;;
74415;SDS011;62850;42.428;25.618;2023-02-28T11:08:15;16.92;;;6.57;;
74415;SDS011;62850;42.428;25.618;2023-02-28T11:10:44;15.18;;;7.22;;
74415;SDS011;62850;42.428;25.618;2023-02-28T11:13:21;12.23;;;6.05;;
74415;SDS011;62850;42.428;25.618;2023-02-28T11:15:56;12.73;;;6.45;;
74415;SDS011;62850;42.428;25.618;2023-02-28T11:21:16;17.08;;;6.85;;
74415;SDS011;62850;42.428;25.618;2023-02-28T11:23:45;13.18;;;6.57;;
74415;SDS011;62850;42.428;25.618;2023-02-28T11:26:12;17.83;;;6.57;;
74415;SDS011;62850;42.428;25.618;2023-02-28T11:28:39;13.15;;;6.85;;
74415;SDS011;62850;42.428;25.618;2023-02-28T11:33:54;14.90;;;6.93;;
74415;SDS011;62850;42.428;25.618;2023-02-28T11:36:28;11.75;;;6.55;;
74415;SDS011;62850;42.428;25.618;2023-02-28T11:38:59;14.52;;;6.28;;
74415;SDS011;62850;42.428;25.618;2023-02-28T11:44:52;17.33;;;7.10;;
74415;SDS011;62850;42.428;25.618;2023-02-28T11:47:01;21.70;;;7.88;;
74415;SDS011;62850;42.428;25.618;2023-02-28T11:49:55;12.90;;;6.72;;
74415;SDS011;62850;42.428;25.618;2023-02-28T11:52:54;14.00;;;7.50;;
74415;SDS011;62850;42.428;25.618;2023-02-28T11:55:30;14.48;;;7.57;;
74415;SDS011;62850;42.428;25.618;2023-02-28T12:03:45;16.55;;;7.20;;
74415;SDS011;62850;42.428;25.618;2023-02-28T12:06:27;16.63;;;7.88;;
74415;SDS011;62850;42.428;25.618;2023-02-28T12:09:44;14.95;;;7.75;;
74415;SDS011;62850;42.428;25.618;2023-02-28T12:20:33;16.08;;;8.18;;
74415;SDS011;62850;42.428;25.618;2023-02-28T12:28:49;21.23;;;10.48;;
74415;SDS011;62850;42.428;25.618;2023-02-28T12:31:23;17.52;;;9.85;;
74415;SDS011;62850;42.428;25.618;2023-02-28T12:33:52;17.60;;;10.15;;
74415;SDS011;62850;42.428;25.618;2023-02-28T12:36:21;17.42;;;9.95;;
74415;SDS011;62850;42.428;25.618;2023-02-28T12:41:33;19.10;;;10.25;;
74415;SDS011;62850;42.428;25.618;2023-02-28T12:44:48;19.48;;;10.48;;
74415;SDS011;62850;42.428;25.618;2023-02-28T12:47:15;21.38;;;9.98;;
74415;SDS011;62850;42.428;25.618;2023-02-28T12:52:37;17.13;;;9.50;;
74415;SDS011;62850;42.428;25.618;2023-02-28T13:00:22;21.83;;;10.38;;
74415;SDS011;62850;42.428;25.618;2023-02-28T13:10:52;23.02;;;10.68;;
74415;SDS011;62850;42.428;25.618;2023-02-28T13:13:22;20.10;;;9.77;;
74415;SDS011;62850;42.428;25.618;2023-02-28T13:16:23;20.23;;;11.30;;
74415;SDS011;62850;42.428;25.618;2023-02-28T13:18:43;22.45;;;10.65;;
74415;SDS011;62850;42.428;25.618;2023-02-28T13:21:24;22.80;;;11.00;;
74415;SDS011;62850;42.428;25.618;2023-02-28T13:34:31;22.45;;;10.38;;
74415;SDS011;62850;42.428;25.618;2023-02-28T14:01:16;24.30;;;11.50;;
74415;SDS011;62850;42.428;25.618;2023-02-28T14:06:32;23.90;;;11.40;;
74415;SDS011;62850;42.428;25.618;2023-02-28T14:09:03;25.85;;;11.52;;
74415;SDS011;62850;42.428;25.618;2023-02-28T14:11:41;22.90;;;11.45;;
74415;SDS011;62850;42.428;25.618;2023-02-28T14:14:08;26.52;;;12.52;;
74415;SDS011;62850;42.428;25.618;2023-02-28T14:16:54;26.88;;;12.77;;
74415;SDS011;62850;42.428;25.618;2023-02-28T14:24:56;28.95;;;13.50;;
74415;SDS011;62850;42.428;25.618;2023-02-28T14:30:51;21.42;;;10.55;;
74415;SDS011;62850;42.428;25.618;2023-02-28T14:36:10;24.08;;;12.73;;
74415;SDS011;62850;42.428;25.618;2023-02-28T14:41:23;28.10;;;12.25;;
74415;SDS011;62850;42.428;25.618;2023-02-28T14:43:56;24.27;;;12.23;;
74415;SDS011;62850;42.428;25.618;2023-02-28T14:46:35;26.70;;;12.77;;
74415;SDS011;62850;42.428;25.618;2023-02-28T14:49:06;26.88;;;12.07;;
74415;SDS011;62850;42.428;25.618;2023-02-28T14:51:37;24.55;;;12.98;;
74415;SDS011;62850;42.428;25.618;2023-02-28T14:54:03;23.55;;;12.50;;
74415;SDS011;62850;42.428;25.618;2023-02-28T14:56:37;24.42;;;11.68;;
74415;SDS011;62850;42.428;25.618;2023-02-28T14:59:04;24.05;;;10.65;;
74415;SDS011;62850;42.428;25.618;2023-02-28T15:01:31;26.23;;;12.70;;
74415;SDS011;62850;42.428;25.618;2023-02-28T15:04:03;26.60;;;12.15;;
74415;SDS011;62850;42.428;25.618;2023-02-28T15:06:30;26.38;;;11.57;;
74415;SDS011;62850;42.428;25.618;2023-02-28T15:09:07;22.40;;;11.02;;
74415;SDS011;62850;42.428;25.618;2023-02-28T15:11:33;20.60;;;10.85;;
74415;SDS011;62850;42.428;25.618;2023-02-28T15:13:58;25.45;;;11.90;;
74415;SDS011;62850;42.428;25.618;2023-02-28T15:16:28;18.05;;;9.07;;
74415;SDS011;62850;42.428;25.618;2023-02-28T15:21:25;20.30;;;9.80;;
74415;SDS011;62850;42.428;25.618;2023-02-28T15:24:13;22.85;;;9.63;;
74415;SDS011;62850;42.428;25.618;2023-02-28T15:26:52;18.65;;;9.32;;
74415;SDS011;62850;42.428;25.618;2023-02-28T15:29:24;19.52;;;9.65;;
74415;SDS011;62850;42.428;25.618;2023-02-28T15:31:56;20.48;;;8.75;;
74415;SDS011;62850;42.428;25.618;2023-02-28T15:34:25;16.65;;;8.40;;
74415;SDS011;62850;42.428;25.618;2023-02-28T15:36:51;17.30;;;8.40;;
74415;SDS011;62850;42.428;25.618;2023-02-28T15:39:21;16.50;;;8.07;;
74415;SDS011;62850;42.428;25.618;2023-02-28T15:41:49;19.73;;;8.80;;
74415;SDS011;62850;42.428;25.618;2023-02-28T15:44:23;17.88;;;8.50;;
74415;SDS011;62850;42.428;25.618;2023-02-28T15:49:27;17.73;;;8.25;;
74415;SDS011;62850;42.428;25.618;2023-02-28T15:51:55;19.65;;;9.20;;
74415;SDS011;62850;42.428;25.618;2023-02-28T15:54:25;19.02;;;9.15;;
74415;SDS011;62850;42.428;25.618;2023-02-28T15:56:57;20.60;;;9.98;;
74415;SDS011;62850;42.428;25.618;2023-02-28T15:59:29;22.75;;;9.90;;
74415;SDS011;62850;42.428;25.618;2023-02-28T16:02:02;19.27;;;9.82;;
74415;SDS011;62850;42.428;25.618;2023-02-28T16:04:55;19.02;;;9.57;;
74415;SDS011;62850;42.428;25.618;2023-02-28T16:07:23;31.58;;;13.45;;
74415;SDS011;62850;42.428;25.618;2023-02-28T16:09:49;22.88;;;11.35;;
74415;SDS011;62850;42.428;25.618;2023-02-28T16:12:15;21.35;;;10.32;;
74415;SDS011;62850;42.428;25.618;2023-02-28T16:14:41;21.13;;;11.02;;
74415;SDS011;62850;42.428;25.618;2023-02-28T16:17:13;20.40;;;10.57;;
74415;SDS011;62850;42.428;25.618;2023-02-28T16:19:46;25.13;;;10.05;;
74415;SDS011;62850;42.428;25.618;2023-02-28T16:22:11;27.90;;;13.00;;
74415;SDS011;62850;42.428;25.618;2023-02-28T16:24:37;24.25;;;11.02;;
74415;SDS011;62850;42.428;25.618;2023-02-28T16:27:03;17.60;;;9.57;;
74415;SDS011;62850;42.428;25.618;2023-02-28T16:29:31;23.15;;;10.45;;
74415;SDS011;62850;42.428;25.618;2023-02-28T16:32:00;17.55;;;8.73;;
74415;SDS011;62850;42.428;25.618;2023-02-28T16:34:26;24.92;;;9.27;;
74415;SDS011;62850;42.428;25.618;2023-02-28T16:36:52;16.85;;;8.80;;
74415;SDS011;62850;42.428;25.618;2023-02-28T16:39:17;19.40;;;9.93;;
74415;SDS011;62850;42.428;25.618;2023-02-28T16:41:45;18.15;;;8.85;;
74415;SDS011;62850;42.428;25.618;2023-02-28T16:44:15;20.45;;;9.65;;
74415;SDS011;62850;42.428;25.618;2023-02-28T16:46:51;24.08;;;10.48;;
74415;SDS011;62850;42.428;25.618;2023-02-28T16:49:17;23.35;;;10.70;;
74415;SDS011;62850;42.428;25.618;2023-02-28T16:51:43;21.42;;;9.80;;
74415;SDS011;62850;42.428;25.618;2023-02-28T16:54:08;21.55;;;9.57;;
74415;SDS011;62850;42.428;25.618;2023-02-28T16:56:34;17.95;;;9.45;;
74415;SDS011;62850;42.428;25.618;2023-02-28T16:59:00;17.98;;;8.68;;
74415;SDS011;62850;42.428;25.618;2023-02-28T17:01:27;20.23;;;9.13;;
74415;SDS011;62850;42.428;25.618;2023-02-28T17:03:54;16.50;;;8.90;;
74415;SDS011;62850;42.428;25.618;2023-02-28T17:06:21;16.83;;;8.65;;
74415;SDS011;62850;42.428;25.618;2023-02-28T17:08:51;17.73;;;9.32;;
74415;SDS011;62850;42.428;25.618;2023-02-28T17:11:17;14.90;;;7.70;;